sensor_id;sensor_type;location;lat;lon;timestamp;temperature;humidity
25192;DHT22;13143;50.924;5.320;2022-11-15T00:01:40;10.70;99.90
25192;DHT22;13143;50.924;5.320;2022-11-15T00:04:06;10.70;99.90
25192;DHT22;13143;50.924;5.320;2022-11-15T00:06:32;10.70;99.90
25192;DHT22;13143;50.924;5.320;2022-11-15T00:08:58;10.80;99.90
25192;DHT22;13143;50.924;5.320;2022-11-15T00:11:25;10.80;99.90
25192;DHT22;13143;50.924;5.320;2022-11-15T00:13:50;10.80;99.90
25192;DHT22;13143;50.924;5.320;2022-11-15T00:16:16;10.90;99.90
25192;DHT22;13143;50.924;5.320;2022-11-15T00:18:42;10.90;99.90
25192;DHT22;13143;50.924;5.320;2022-11-15T00:21:11;10.90;99.90
25192;DHT22;13143;50.924;5.320;2022-11-15T00:23:37;11.00;99.90
25192;DHT22;13143;50.924;5.320;2022-11-15T00:26:03;11.00;99.90
25192;DHT22;13143;50.924;5.320;2022-11-15T00:28:28;11.00;99.90
25192;DHT22;13143;50.924;5.320;2022-11-15T00:31:03;11.00;99.90
25192;DHT22;13143;50.924;5.320;2022-11-15T00:33:29;11.00;99.90
25192;DHT22;13143;50.924;5.320;2022-11-15T00:36:06;11.00;99.90
25192;DHT22;13143;50.924;5.320;2022-11-15T00:38:35;11.10;99.90
25192;DHT22;13143;50.924;5.320;2022-11-15T00:41:02;11.10;99.90
25192;DHT22;13143;50.924;5.320;2022-11-15T00:43:28;11.10;99.90
25192;DHT22;13143;50.924;5.320;2022-11-15T00:45:54;11.20;99.90
25192;DHT22;13143;50.924;5.320;2022-11-15T00:48:20;11.20;99.90
25192;DHT22;13143;50.924;5.320;2022-11-15T00:50:45;11.20;99.90
25192;DHT22;13143;50.924;5.320;2022-11-15T00:53:11;11.20;99.90
25192;DHT22;13143;50.924;5.320;2022-11-15T00:55:37;11.20;99.90
25192;DHT22;13143;50.924;5.320;2022-11-15T00:58:02;11.30;99.90
25192;DHT22;13143;50.924;5.320;2022-11-15T01:00:28;11.30;99.90
25192;DHT22;13143;50.924;5.320;2022-11-15T01:02:54;11.30;99.90
25192;DHT22;13143;50.924;5.320;2022-11-15T01:05:20;11.30;99.90
25192;DHT22;13143;50.924;5.320;2022-11-15T01:07:45;11.40;99.90
25192;DHT22;13143;50.924;5.320;2022-11-15T01:10:11;11.40;99.90
25192;DHT22;13143;50.924;5.320;2022-11-15T01:12:37;11.40;99.90
25192;DHT22;13143;50.924;5.320;2022-11-15T01:15:03;11.40;99.90
25192;DHT22;13143;50.924;5.320;2022-11-15T01:17:30;11.40;99.90
25192;DHT22;13143;50.924;5.320;2022-11-15T01:19:56;11.50;99.90
25192;DHT22;13143;50.924;5.320;2022-11-15T01:22:22;11.50;99.90
25192;DHT22;13143;50.924;5.320;2022-11-15T01:24:49;11.50;99.90
25192;DHT22;13143;50.924;5.320;2022-11-15T01:27:15;11.50;99.90
25192;DHT22;13143;50.924;5.320;2022-11-15T01:29:41;11.60;99.90
25192;DHT22;13143;50.924;5.320;2022-11-15T01:32:06;11.50;99.90
25192;DHT22;13143;50.924;5.320;2022-11-15T01:34:32;11.60;99.90
25192;DHT22;13143;50.924;5.320;2022-11-15T01:36:58;11.60;99.90
25192;DHT22;13143;50.924;5.320;2022-11-15T01:39:24;11.60;99.90
25192;DHT22;13143;50.924;5.320;2022-11-15T01:41:50;11.60;99.90
25192;DHT22;13143;50.924;5.320;2022-11-15T01:46:57;11.60;99.90
25192;DHT22;13143;50.924;5.320;2022-11-15T01:49:27;11.70;99.90
25192;DHT22;13143;50.924;5.320;2022-11-15T01:51:54;11.70;99.90
25192;DHT22;13143;50.924;5.320;2022-11-15T01:54:21;11.70;99.90
25192;DHT22;13143;50.924;5.320;2022-11-15T01:57:01;11.70;99.90
25192;DHT22;13143;50.924;5.320;2022-11-15T01:59:29;11.70;99.90
25192;DHT22;13143;50.924;5.320;2022-11-15T02:01:55;11.80;99.90
25192;DHT22;13143;50.924;5.320;2022-11-15T02:04:26;11.80;99.90
25192;DHT22;13143;50.924;5.320;2022-11-15T02:06:53;11.80;99.90
25192;DHT22;13143;50.924;5.320;2022-11-15T02:09:19;11.80;99.90
25192;DHT22;13143;50.924;5.320;2022-11-15T02:11:46;11.80;99.90
25192;DHT22;13143;50.924;5.320;2022-11-15T02:14:14;11.80;99.90
25192;DHT22;13143;50.924;5.320;2022-11-15T02:33:30;11.90;99.90
25192;DHT22;13143;50.924;5.320;2022-11-15T02:41:11;12.00;99.90
25192;DHT22;13143;50.924;5.320;2022-11-15T02:44:01;12.00;99.90
25192;DHT22;13143;50.924;5.320;2022-11-15T02:46:35;12.00;99.90
25192;DHT22;13143;50.924;5.320;2022-11-15T02:49:38;12.00;99.90
25192;DHT22;13143;50.924;5.320;2022-11-15T02:52:05;12.10;99.90
25192;DHT22;13143;50.924;5.320;2022-11-15T02:54:32;12.00;99.90
25192;DHT22;13143;50.924;5.320;2022-11-15T02:57:04;12.10;99.90
25192;DHT22;13143;50.924;5.320;2022-11-15T03:02:23;12.10;99.90
25192;DHT22;13143;50.924;5.320;2022-11-15T03:05:09;12.10;99.90
25192;DHT22;13143;50.924;5.320;2022-11-15T03:08:17;12.10;99.90
25192;DHT22;13143;50.924;5.320;2022-11-15T03:11:07;12.10;99.90
25192;DHT22;13143;50.924;5.320;2022-11-15T03:13:38;12.10;99.90
25192;DHT22;13143;50.924;5.320;2022-11-15T03:19:31;12.20;99.90
25192;DHT22;13143;50.924;5.320;2022-11-15T03:21:37;12.20;99.90
25192;DHT22;13143;50.924;5.320;2022-11-15T03:24:06;12.20;99.90
25192;DHT22;13143;50.924;5.320;2022-11-15T03:26:34;12.20;99.90
25192;DHT22;13143;50.924;5.320;2022-11-15T03:29:17;12.20;99.90
25192;DHT22;13143;50.924;5.320;2022-11-15T03:31:50;12.20;99.90
25192;DHT22;13143;50.924;5.320;2022-11-15T03:34:38;12.20;99.90
25192;DHT22;13143;50.924;5.320;2022-11-15T03:37:05;12.20;99.90
25192;DHT22;13143;50.924;5.320;2022-11-15T03:39:32;12.20;99.90
25192;DHT22;13143;50.924;5.320;2022-11-15T03:42:21;12.20;99.90
25192;DHT22;13143;50.924;5.320;2022-11-15T03:47:29;12.20;99.90
25192;DHT22;13143;50.924;5.320;2022-11-15T03:50:04;12.20;99.90
25192;DHT22;13143;50.924;5.320;2022-11-15T03:52:34;12.30;99.90
25192;DHT22;13143;50.924;5.320;2022-11-15T03:55:01;12.20;99.90
25192;DHT22;13143;50.924;5.320;2022-11-15T03:57:28;12.20;99.90
25192;DHT22;13143;50.924;5.320;2022-11-15T03:59:54;12.30;99.90
25192;DHT22;13143;50.924;5.320;2022-11-15T04:02:19;12.30;99.90
25192;DHT22;13143;50.924;5.320;2022-11-15T04:04:45;12.20;99.90
25192;DHT22;13143;50.924;5.320;2022-11-15T04:07:11;12.20;99.90
25192;DHT22;13143;50.924;5.320;2022-11-15T04:09:37;12.30;99.90
25192;DHT22;13143;50.924;5.320;2022-11-15T04:12:21;12.30;99.90
25192;DHT22;13143;50.924;5.320;2022-11-15T04:14:56;12.30;99.90
25192;DHT22;13143;50.924;5.320;2022-11-15T04:17:42;12.30;99.90
25192;DHT22;13143;50.924;5.320;2022-11-15T04:20:12;12.30;99.90
25192;DHT22;13143;50.924;5.320;2022-11-15T04:22:57;12.30;99.90
25192;DHT22;13143;50.924;5.320;2022-11-15T04:25:42;12.30;99.90
25192;DHT22;13143;50.924;5.320;2022-11-15T04:28:09;12.30;99.90
25192;DHT22;13143;50.924;5.320;2022-11-15T04:30:34;12.30;99.90
25192;DHT22;13143;50.924;5.320;2022-11-15T04:33:00;12.30;99.90
25192;DHT22;13143;50.924;5.320;2022-11-15T04:35:26;12.30;99.90
25192;DHT22;13143;50.924;5.320;2022-11-15T04:37:52;12.30;99.90
25192;DHT22;13143;50.924;5.320;2022-11-15T04:40:18;12.30;99.90
25192;DHT22;13143;50.924;5.320;2022-11-15T04:42:43;12.30;99.90
25192;DHT22;13143;50.924;5.320;2022-11-15T04:45:09;12.30;99.90
25192;DHT22;13143;50.924;5.320;2022-11-15T04:47:35;12.30;99.90
25192;DHT22;13143;50.924;5.320;2022-11-15T04:50:01;12.30;99.90
25192;DHT22;13143;50.924;5.320;2022-11-15T04:52:26;12.30;99.90
25192;DHT22;13143;50.924;5.320;2022-11-15T04:54:52;12.30;99.90
25192;DHT22;13143;50.924;5.320;2022-11-15T04:57:18;12.30;99.90
25192;DHT22;13143;50.924;5.320;2022-11-15T04:59:43;12.30;99.90
25192;DHT22;13143;50.924;5.320;2022-11-15T05:02:09;12.30;99.90
25192;DHT22;13143;50.924;5.320;2022-11-15T05:04:35;12.30;99.90
25192;DHT22;13143;50.924;5.320;2022-11-15T05:07:00;12.30;99.90
25192;DHT22;13143;50.924;5.320;2022-11-15T05:09:26;12.30;99.90
25192;DHT22;13143;50.924;5.320;2022-11-15T05:11:52;12.30;99.90
25192;DHT22;13143;50.924;5.320;2022-11-15T05:14:17;12.30;99.90
25192;DHT22;13143;50.924;5.320;2022-11-15T05:16:43;12.30;99.90
25192;DHT22;13143;50.924;5.320;2022-11-15T05:19:09;12.30;99.90
25192;DHT22;13143;50.924;5.320;2022-11-15T05:21:35;12.30;99.90
25192;DHT22;13143;50.924;5.320;2022-11-15T05:24:01;12.30;99.90
25192;DHT22;13143;50.924;5.320;2022-11-15T05:26:27;12.20;99.90
25192;DHT22;13143;50.924;5.320;2022-11-15T05:28:57;12.30;99.90
25192;DHT22;13143;50.924;5.320;2022-11-15T05:31:24;12.20;99.90
25192;DHT22;13143;50.924;5.320;2022-11-15T05:33:51;12.20;99.90
25192;DHT22;13143;50.924;5.320;2022-11-15T05:36:46;12.20;99.90
25192;DHT22;13143;50.924;5.320;2022-11-15T05:39:11;12.20;99.90
25192;DHT22;13143;50.924;5.320;2022-11-15T05:44:07;12.20;99.90
25192;DHT22;13143;50.924;5.320;2022-11-15T05:46:34;12.20;99.90
25192;DHT22;13143;50.924;5.320;2022-11-15T05:49:01;12.20;99.90
25192;DHT22;13143;50.924;5.320;2022-11-15T05:51:27;12.20;99.90
25192;DHT22;13143;50.924;5.320;2022-11-15T05:53:55;12.20;99.90
25192;DHT22;13143;50.924;5.320;2022-11-15T05:56:22;12.20;99.90
25192;DHT22;13143;50.924;5.320;2022-11-15T05:58:47;12.20;99.90
25192;DHT22;13143;50.924;5.320;2022-11-15T06:01:13;12.20;99.90
25192;DHT22;13143;50.924;5.320;2022-11-15T06:03:39;12.20;99.90
25192;DHT22;13143;50.924;5.320;2022-11-15T06:06:05;12.20;99.90
25192;DHT22;13143;50.924;5.320;2022-11-15T06:08:30;12.10;99.90
25192;DHT22;13143;50.924;5.320;2022-11-15T06:10:56;12.10;99.90
25192;DHT22;13143;50.924;5.320;2022-11-15T06:13:22;12.10;99.90
25192;DHT22;13143;50.924;5.320;2022-11-15T06:15:47;12.10;99.90
25192;DHT22;13143;50.924;5.320;2022-11-15T06:18:13;12.10;99.90
25192;DHT22;13143;50.924;5.320;2022-11-15T06:20:38;12.10;99.90
25192;DHT22;13143;50.924;5.320;2022-11-15T06:23:04;12.10;99.90
25192;DHT22;13143;50.924;5.320;2022-11-15T06:25:30;12.10;99.90
25192;DHT22;13143;50.924;5.320;2022-11-15T06:27:59;12.00;99.90
25192;DHT22;13143;50.924;5.320;2022-11-15T06:30:26;12.00;99.90
25192;DHT22;13143;50.924;5.320;2022-11-15T06:32:58;12.00;99.90
25192;DHT22;13143;50.924;5.320;2022-11-15T06:35:25;12.00;99.90
25192;DHT22;13143;50.924;5.320;2022-11-15T06:37:51;12.00;99.90
25192;DHT22;13143;50.924;5.320;2022-11-15T06:40:17;12.00;99.90
25192;DHT22;13143;50.924;5.320;2022-11-15T06:42:42;12.00;99.90
25192;DHT22;13143;50.924;5.320;2022-11-15T06:45:08;12.00;99.90
25192;DHT22;13143;50.924;5.320;2022-11-15T06:47:34;12.00;99.90
25192;DHT22;13143;50.924;5.320;2022-11-15T06:49:59;12.00;99.90
25192;DHT22;13143;50.924;5.320;2022-11-15T06:52:25;11.90;99.90
25192;DHT22;13143;50.924;5.320;2022-11-15T06:54:51;11.90;99.90
25192;DHT22;13143;50.924;5.320;2022-11-15T06:57:16;11.90;99.90
25192;DHT22;13143;50.924;5.320;2022-11-15T06:59:42;11.90;99.90
25192;DHT22;13143;50.924;5.320;2022-11-15T07:02:14;11.90;99.90
25192;DHT22;13143;50.924;5.320;2022-11-15T07:04:40;11.90;99.90
25192;DHT22;13143;50.924;5.320;2022-11-15T07:07:05;11.90;99.90
25192;DHT22;13143;50.924;5.320;2022-11-15T07:09:31;11.90;99.90
25192;DHT22;13143;50.924;5.320;2022-11-15T07:11:57;11.80;99.90
25192;DHT22;13143;50.924;5.320;2022-11-15T07:14:22;11.90;99.90
25192;DHT22;13143;50.924;5.320;2022-11-15T07:16:48;11.80;99.90
25192;DHT22;13143;50.924;5.320;2022-11-15T07:19:13;11.80;99.90
25192;DHT22;13143;50.924;5.320;2022-11-15T07:21:39;11.80;99.90
25192;DHT22;13143;50.924;5.320;2022-11-15T07:24:05;11.80;99.90
25192;DHT22;13143;50.924;5.320;2022-11-15T07:26:30;11.80;99.90
25192;DHT22;13143;50.924;5.320;2022-11-15T07:28:56;11.80;99.90
25192;DHT22;13143;50.924;5.320;2022-11-15T07:31:22;11.70;99.90
25192;DHT22;13143;50.924;5.320;2022-11-15T07:33:47;11.70;99.90
25192;DHT22;13143;50.924;5.320;2022-11-15T07:36:13;11.70;99.90
25192;DHT22;13143;50.924;5.320;2022-11-15T07:38:39;11.70;99.90
25192;DHT22;13143;50.924;5.320;2022-11-15T07:41:05;11.70;99.90
25192;DHT22;13143;50.924;5.320;2022-11-15T07:43:31;11.70;99.90
25192;DHT22;13143;50.924;5.320;2022-11-15T07:46:05;11.70;99.90
25192;DHT22;13143;50.924;5.320;2022-11-15T07:48:31;11.70;99.90
25192;DHT22;13143;50.924;5.320;2022-11-15T07:50:56;11.70;99.90
25192;DHT22;13143;50.924;5.320;2022-11-15T07:53:22;11.70;99.90
25192;DHT22;13143;50.924;5.320;2022-11-15T07:55:48;11.70;99.90
25192;DHT22;13143;50.924;5.320;2022-11-15T07:58:13;11.70;99.90
25192;DHT22;13143;50.924;5.320;2022-11-15T08:00:39;11.70;99.90
25192;DHT22;13143;50.924;5.320;2022-11-15T08:03:09;11.60;99.90
25192;DHT22;13143;50.924;5.320;2022-11-15T08:05:36;11.60;99.90
25192;DHT22;13143;50.924;5.320;2022-11-15T08:08:03;11.60;99.90
25192;DHT22;13143;50.924;5.320;2022-11-15T08:10:29;11.60;99.90
25192;DHT22;13143;50.924;5.320;2022-11-15T08:13:03;11.60;99.90
25192;DHT22;13143;50.924;5.320;2022-11-15T08:15:30;11.70;99.90
25192;DHT22;13143;50.924;5.320;2022-11-15T08:17:57;11.70;99.90
25192;DHT22;13143;50.924;5.320;2022-11-15T08:20:24;11.60;99.90
25192;DHT22;13143;50.924;5.320;2022-11-15T08:22:50;11.60;99.90
25192;DHT22;13143;50.924;5.320;2022-11-15T08:25:16;11.60;99.90
25192;DHT22;13143;50.924;5.320;2022-11-15T08:27:42;11.60;99.90
25192;DHT22;13143;50.924;5.320;2022-11-15T08:30:07;11.60;99.90
25192;DHT22;13143;50.924;5.320;2022-11-15T08:32:33;11.60;99.90
25192;DHT22;13143;50.924;5.320;2022-11-15T08:34:59;11.60;99.90
25192;DHT22;13143;50.924;5.320;2022-11-15T08:37:25;11.60;99.90
25192;DHT22;13143;50.924;5.320;2022-11-15T08:39:50;11.60;99.90
25192;DHT22;13143;50.924;5.320;2022-11-15T08:42:19;11.60;99.90
25192;DHT22;13143;50.924;5.320;2022-11-15T08:44:44;11.60;99.90
25192;DHT22;13143;50.924;5.320;2022-11-15T08:47:11;11.50;99.90
25192;DHT22;13143;50.924;5.320;2022-11-15T08:49:40;11.60;99.90
25192;DHT22;13143;50.924;5.320;2022-11-15T08:52:06;11.50;99.90
25192;DHT22;13143;50.924;5.320;2022-11-15T08:54:32;11.50;99.90
25192;DHT22;13143;50.924;5.320;2022-11-15T08:56:57;11.60;99.90
25192;DHT22;13143;50.924;5.320;2022-11-15T08:59:23;11.60;99.90
25192;DHT22;13143;50.924;5.320;2022-11-15T09:01:49;11.50;99.90
25192;DHT22;13143;50.924;5.320;2022-11-15T09:04:14;11.60;99.90
25192;DHT22;13143;50.924;5.320;2022-11-15T09:06:40;11.60;99.90
25192;DHT22;13143;50.924;5.320;2022-11-15T09:09:06;11.60;99.90
25192;DHT22;13143;50.924;5.320;2022-11-15T09:11:31;11.60;99.90
25192;DHT22;13143;50.924;5.320;2022-11-15T09:13:57;11.60;99.90
25192;DHT22;13143;50.924;5.320;2022-11-15T09:16:23;11.60;99.90
25192;DHT22;13143;50.924;5.320;2022-11-15T09:18:53;11.60;99.90
25192;DHT22;13143;50.924;5.320;2022-11-15T09:21:19;11.60;99.90
25192;DHT22;13143;50.924;5.320;2022-11-15T09:23:45;11.60;99.90
25192;DHT22;13143;50.924;5.320;2022-11-15T09:26:10;11.60;99.90
25192;DHT22;13143;50.924;5.320;2022-11-15T09:28:36;11.60;99.90
25192;DHT22;13143;50.924;5.320;2022-11-15T09:31:05;11.60;99.90
25192;DHT22;13143;50.924;5.320;2022-11-15T09:33:31;11.60;99.90
25192;DHT22;13143;50.924;5.320;2022-11-15T09:36:02;11.60;99.90
25192;DHT22;13143;50.924;5.320;2022-11-15T09:38:28;11.60;99.90
25192;DHT22;13143;50.924;5.320;2022-11-15T09:49:08;11.60;99.90
25192;DHT22;13143;50.924;5.320;2022-11-15T09:51:37;11.70;99.90
25192;DHT22;13143;50.924;5.320;2022-11-15T09:54:41;11.60;99.90
25192;DHT22;13143;50.924;5.320;2022-11-15T09:57:20;11.60;99.90
25192;DHT22;13143;50.924;5.320;2022-11-15T10:05:11;11.70;99.90
25192;DHT22;13143;50.924;5.320;2022-11-15T10:10:39;11.70;99.90
25192;DHT22;13143;50.924;5.320;2022-11-15T10:13:14;11.70;99.90
25192;DHT22;13143;50.924;5.320;2022-11-15T10:15:43;11.70;99.90
25192;DHT22;13143;50.924;5.320;2022-11-15T10:18:15;11.70;99.90
25192;DHT22;13143;50.924;5.320;2022-11-15T10:20:58;11.80;99.90
25192;DHT22;13143;50.924;5.320;2022-11-15T10:23:24;11.80;99.90
25192;DHT22;13143;50.924;5.320;2022-11-15T10:25:58;11.80;99.90
25192;DHT22;13143;50.924;5.320;2022-11-15T10:28:29;11.80;99.90
25192;DHT22;13143;50.924;5.320;2022-11-15T10:30:57;11.80;99.90
25192;DHT22;13143;50.924;5.320;2022-11-15T10:33:29;11.80;99.90
25192;DHT22;13143;50.924;5.320;2022-11-15T10:43:42;11.90;99.90
25192;DHT22;13143;50.924;5.320;2022-11-15T10:46:22;11.90;99.90
25192;DHT22;13143;50.924;5.320;2022-11-15T10:48:48;11.90;99.90
25192;DHT22;13143;50.924;5.320;2022-11-15T10:51:26;11.90;99.90
25192;DHT22;13143;50.924;5.320;2022-11-15T10:53:55;12.00;99.90
25192;DHT22;13143;50.924;5.320;2022-11-15T10:56:22;12.10;99.90
25192;DHT22;13143;50.924;5.320;2022-11-15T10:58:56;12.10;99.90
25192;DHT22;13143;50.924;5.320;2022-11-15T11:01:26;12.10;99.90
25192;DHT22;13143;50.924;5.320;2022-11-15T11:04:07;12.00;99.90
25192;DHT22;13143;50.924;5.320;2022-11-15T11:06:50;12.00;99.90
25192;DHT22;13143;50.924;5.320;2022-11-15T11:09:36;12.00;99.90
25192;DHT22;13143;50.924;5.320;2022-11-15T11:12:05;12.10;99.90
25192;DHT22;13143;50.924;5.320;2022-11-15T11:14:31;12.10;99.90
25192;DHT22;13143;50.924;5.320;2022-11-15T11:19:54;12.10;99.90
25192;DHT22;13143;50.924;5.320;2022-11-15T11:22:25;12.20;99.90
25192;DHT22;13143;50.924;5.320;2022-11-15T11:33:05;12.20;99.90
25192;DHT22;13143;50.924;5.320;2022-11-15T11:38:19;12.30;99.90
25192;DHT22;13143;50.924;5.320;2022-11-15T11:41:04;12.30;99.90
25192;DHT22;13143;50.924;5.320;2022-11-15T11:43:59;12.30;99.90
25192;DHT22;13143;50.924;5.320;2022-11-15T11:54:48;12.40;99.90
25192;DHT22;13143;50.924;5.320;2022-11-15T11:57:42;12.40;99.90
25192;DHT22;13143;50.924;5.320;2022-11-15T12:03:07;12.60;99.90
25192;DHT22;13143;50.924;5.320;2022-11-15T12:05:51;12.60;99.90
25192;DHT22;13143;50.924;5.320;2022-11-15T12:11:19;12.60;99.90
25192;DHT22;13143;50.924;5.320;2022-11-15T12:13:49;12.60;99.90
25192;DHT22;13143;50.924;5.320;2022-11-15T12:16:24;12.60;99.90
25192;DHT22;13143;50.924;5.320;2022-11-15T12:18:53;12.60;99.90
25192;DHT22;13143;50.924;5.320;2022-11-15T12:24:01;12.70;99.90
25192;DHT22;13143;50.924;5.320;2022-11-15T12:26:35;12.70;99.90
25192;DHT22;13143;50.924;5.320;2022-11-15T12:29:09;12.70;99.90
25192;DHT22;13143;50.924;5.320;2022-11-15T12:31:41;12.70;99.90
25192;DHT22;13143;50.924;5.320;2022-11-15T12:34:15;12.80;99.90
25192;DHT22;13143;50.924;5.320;2022-11-15T12:36:54;12.80;99.90
25192;DHT22;13143;50.924;5.320;2022-11-15T12:39:20;12.80;99.90
25192;DHT22;13143;50.924;5.320;2022-11-15T12:47:30;12.90;99.90
25192;DHT22;13143;50.924;5.320;2022-11-15T12:49:56;12.90;99.90
25192;DHT22;13143;50.924;5.320;2022-11-15T12:52:21;12.90;99.90
25192;DHT22;13143;50.924;5.320;2022-11-15T12:54:56;12.90;99.90
25192;DHT22;13143;50.924;5.320;2022-11-15T12:57:31;12.90;99.90
25192;DHT22;13143;50.924;5.320;2022-11-15T12:59:59;12.90;99.90
25192;DHT22;13143;50.924;5.320;2022-11-15T13:02:40;13.00;99.90
25192;DHT22;13143;50.924;5.320;2022-11-15T13:17:48;13.20;99.90
25192;DHT22;13143;50.924;5.320;2022-11-15T13:22:40;13.20;99.90
25192;DHT22;13143;50.924;5.320;2022-11-15T13:30:54;13.20;99.90
25192;DHT22;13143;50.924;5.320;2022-11-15T13:33:21;13.30;99.90
25192;DHT22;13143;50.924;5.320;2022-11-15T13:35:52;13.30;99.90
25192;DHT22;13143;50.924;5.320;2022-11-15T13:38:34;13.30;99.90
25192;DHT22;13143;50.924;5.320;2022-11-15T13:41:18;13.30;99.90
25192;DHT22;13143;50.924;5.320;2022-11-15T13:43:46;13.30;99.90
25192;DHT22;13143;50.924;5.320;2022-11-15T13:46:19;13.40;99.90
25192;DHT22;13143;50.924;5.320;2022-11-15T13:48:51;13.40;99.90
25192;DHT22;13143;50.924;5.320;2022-11-15T13:51:39;13.40;99.90
25192;DHT22;13143;50.924;5.320;2022-11-15T14:00:21;13.50;99.90
25192;DHT22;13143;50.924;5.320;2022-11-15T14:02:48;13.50;99.90
25192;DHT22;13143;50.924;5.320;2022-11-15T14:07:57;13.50;99.90
25192;DHT22;13143;50.924;5.320;2022-11-15T14:10:31;13.50;99.90
25192;DHT22;13143;50.924;5.320;2022-11-15T14:12:58;13.60;99.90
25192;DHT22;13143;50.924;5.320;2022-11-15T14:15:35;13.60;99.90
25192;DHT22;13143;50.924;5.320;2022-11-15T14:18:02;13.60;99.90
25192;DHT22;13143;50.924;5.320;2022-11-15T14:20:34;13.60;99.90
25192;DHT22;13143;50.924;5.320;2022-11-15T14:23:23;13.60;99.90
25192;DHT22;13143;50.924;5.320;2022-11-15T14:25:58;13.60;99.90
25192;DHT22;13143;50.924;5.320;2022-11-15T14:30:55;13.70;99.90
25192;DHT22;13143;50.924;5.320;2022-11-15T14:33:31;13.70;99.90
25192;DHT22;13143;50.924;5.320;2022-11-15T14:36:02;13.60;99.90
25192;DHT22;13143;50.924;5.320;2022-11-15T14:38:29;13.70;99.90
25192;DHT22;13143;50.924;5.320;2022-11-15T14:40:54;13.70;99.90
25192;DHT22;13143;50.924;5.320;2022-11-15T14:43:21;13.70;99.90
25192;DHT22;13143;50.924;5.320;2022-11-15T14:45:47;13.70;99.90
25192;DHT22;13143;50.924;5.320;2022-11-15T14:48:13;13.70;99.90
25192;DHT22;13143;50.924;5.320;2022-11-15T14:50:38;13.70;99.90
25192;DHT22;13143;50.924;5.320;2022-11-15T14:53:04;13.70;99.90
25192;DHT22;13143;50.924;5.320;2022-11-15T14:55:32;13.70;99.90
25192;DHT22;13143;50.924;5.320;2022-11-15T14:58:01;13.80;99.90
25192;DHT22;13143;50.924;5.320;2022-11-15T15:00:31;13.80;99.90
25192;DHT22;13143;50.924;5.320;2022-11-15T15:02:57;13.70;99.90
25192;DHT22;13143;50.924;5.320;2022-11-15T15:05:26;13.80;99.90
25192;DHT22;13143;50.924;5.320;2022-11-15T15:07:53;13.70;99.90
25192;DHT22;13143;50.924;5.320;2022-11-15T15:10:19;13.80;99.90
25192;DHT22;13143;50.924;5.320;2022-11-15T15:12:45;13.70;99.90
25192;DHT22;13143;50.924;5.320;2022-11-15T15:15:13;13.70;99.90
25192;DHT22;13143;50.924;5.320;2022-11-15T15:17:39;13.70;99.90
25192;DHT22;13143;50.924;5.320;2022-11-15T15:20:05;13.80;99.90
25192;DHT22;13143;50.924;5.320;2022-11-15T15:22:31;13.80;99.90
25192;DHT22;13143;50.924;5.320;2022-11-15T15:24:57;13.80;99.90
25192;DHT22;13143;50.924;5.320;2022-11-15T15:27:22;13.80;99.90
25192;DHT22;13143;50.924;5.320;2022-11-15T15:29:48;13.80;99.90
25192;DHT22;13143;50.924;5.320;2022-11-15T15:32:14;13.80;99.90
25192;DHT22;13143;50.924;5.320;2022-11-15T15:34:40;13.80;99.90
25192;DHT22;13143;50.924;5.320;2022-11-15T15:39:48;13.80;99.90
25192;DHT22;13143;50.924;5.320;2022-11-15T15:42:14;13.80;99.90
25192;DHT22;13143;50.924;5.320;2022-11-15T15:44:40;13.80;99.90
25192;DHT22;13143;50.924;5.320;2022-11-15T15:47:16;13.80;99.90
25192;DHT22;13143;50.924;5.320;2022-11-15T15:49:43;13.80;99.90
25192;DHT22;13143;50.924;5.320;2022-11-15T15:52:08;13.80;99.90
25192;DHT22;13143;50.924;5.320;2022-11-15T15:54:34;13.80;99.90
25192;DHT22;13143;50.924;5.320;2022-11-15T15:56:59;13.80;99.90
25192;DHT22;13143;50.924;5.320;2022-11-15T15:59:25;13.80;99.90
25192;DHT22;13143;50.924;5.320;2022-11-15T16:01:51;13.80;99.90
25192;DHT22;13143;50.924;5.320;2022-11-15T16:04:17;13.80;99.90
25192;DHT22;13143;50.924;5.320;2022-11-15T16:06:42;13.80;99.90
25192;DHT22;13143;50.924;5.320;2022-11-15T16:09:22;13.70;99.90
25192;DHT22;13143;50.924;5.320;2022-11-15T16:12:07;13.80;99.90
25192;DHT22;13143;50.924;5.320;2022-11-15T16:14:33;13.80;99.90
25192;DHT22;13143;50.924;5.320;2022-11-15T16:16:58;13.80;99.90
25192;DHT22;13143;50.924;5.320;2022-11-15T16:19:24;13.80;99.90
25192;DHT22;13143;50.924;5.320;2022-11-15T16:21:50;13.80;99.90
25192;DHT22;13143;50.924;5.320;2022-11-15T16:24:17;13.80;99.90
25192;DHT22;13143;50.924;5.320;2022-11-15T16:26:43;13.80;99.90
25192;DHT22;13143;50.924;5.320;2022-11-15T16:29:10;13.80;99.90
25192;DHT22;13143;50.924;5.320;2022-11-15T16:31:36;13.70;99.90
25192;DHT22;13143;50.924;5.320;2022-11-15T16:34:01;13.70;99.90
25192;DHT22;13143;50.924;5.320;2022-11-15T16:36:29;13.70;99.90
25192;DHT22;13143;50.924;5.320;2022-11-15T16:38:55;13.70;99.90
25192;DHT22;13143;50.924;5.320;2022-11-15T16:41:21;13.70;99.90
25192;DHT22;13143;50.924;5.320;2022-11-15T16:43:48;13.70;99.90
25192;DHT22;13143;50.924;5.320;2022-11-15T16:46:20;13.70;99.90
25192;DHT22;13143;50.924;5.320;2022-11-15T16:48:46;13.70;99.90
25192;DHT22;13143;50.924;5.320;2022-11-15T16:51:12;13.70;99.90
25192;DHT22;13143;50.924;5.320;2022-11-15T16:53:39;13.70;99.90
25192;DHT22;13143;50.924;5.320;2022-11-15T16:58:42;13.60;99.90
25192;DHT22;13143;50.924;5.320;2022-11-15T17:01:18;13.70;99.90
25192;DHT22;13143;50.924;5.320;2022-11-15T17:03:44;13.60;99.90
25192;DHT22;13143;50.924;5.320;2022-11-15T17:06:12;13.60;99.90
25192;DHT22;13143;50.924;5.320;2022-11-15T17:08:38;13.60;99.90
25192;DHT22;13143;50.924;5.320;2022-11-15T17:11:07;13.60;99.90
25192;DHT22;13143;50.924;5.320;2022-11-15T17:13:33;13.60;99.90
25192;DHT22;13143;50.924;5.320;2022-11-15T17:16:11;13.60;99.90
25192;DHT22;13143;50.924;5.320;2022-11-15T17:18:37;13.60;99.90
25192;DHT22;13143;50.924;5.320;2022-11-15T17:21:09;13.60;99.90
25192;DHT22;13143;50.924;5.320;2022-11-15T17:23:35;13.60;99.90
25192;DHT22;13143;50.924;5.320;2022-11-15T17:26:02;13.60;99.90
25192;DHT22;13143;50.924;5.320;2022-11-15T17:28:30;13.60;99.90
25192;DHT22;13143;50.924;5.320;2022-11-15T17:30:56;13.60;99.90
25192;DHT22;13143;50.924;5.320;2022-11-15T17:33:22;13.60;99.90
25192;DHT22;13143;50.924;5.320;2022-11-15T17:35:57;13.60;99.90
25192;DHT22;13143;50.924;5.320;2022-11-15T17:38:24;13.50;99.90
25192;DHT22;13143;50.924;5.320;2022-11-15T17:41:02;13.50;99.90
25192;DHT22;13143;50.924;5.320;2022-11-15T17:43:30;13.50;99.90
25192;DHT22;13143;50.924;5.320;2022-11-15T17:45:56;13.50;99.90
25192;DHT22;13143;50.924;5.320;2022-11-15T17:48:22;13.50;99.90
25192;DHT22;13143;50.924;5.320;2022-11-15T17:50:58;13.50;99.90
25192;DHT22;13143;50.924;5.320;2022-11-15T17:53:25;13.50;99.90
25192;DHT22;13143;50.924;5.320;2022-11-15T17:55:51;13.50;99.90